Time;durP1;ratioP1;P1;durP2;ratioP2;P2;SDS_P1;SDS_P2;PMS_P1;PMS_P2;Temp;Humidity;BMP_temperature;BMP_pressure;BME280_temperature;BME280_humidity;BME280_pressure;Samples;Min_cycle;Max_cycle;Signal;HPM_P1;HPM_P2
2023/10/16 00:00:29;;;;;;;;;;;7.10;99.90;;;;;;4963110;28;20009;-73
2023/10/16 00:02:59;;;;;;;;;;;7.20;99.90;;;;;;4961684;28;19933;-73
2023/10/16 00:05:38;;;;;;;;;;;7.20;99.90;;;;;;4964778;28;19906;-74
2023/10/16 00:08:06;;;;;;;;;;;7.20;99.90;;;;;;4961992;28;19933;-73
2023/10/16 00:10:33;;;;;;;;;;;7.10;99.90;;;;;;4967025;28;19921;-74
2023/10/16 00:13:04;;;;;;;;;;;7.10;99.90;;;;;;4945352;28;20238;-73
2023/10/16 00:15:32;;;;;;;;;;;7.10;99.90;;;;;;4963900;28;19918;-75
2023/10/16 00:17:58;;;;;;;;;;;7.10;99.90;;;;;;4963592;28;19921;-75
2023/10/16 00:20:25;;;;;;;;;;;7.00;99.90;;;;;;4969272;28;20550;-73
2023/10/16 00:22:50;;;;;;;;;;;7.00;99.90;;;;;;4965248;28;19970;-74
2023/10/16 00:25:16;;;;;;;;;;;7.00;99.90;;;;;;4965050;28;19953;-75
2023/10/16 00:27:43;;;;;;;;;;;7.00;99.90;;;;;;4965169;28;19910;-75
2023/10/16 00:30:09;;;;;;;;;;;6.90;99.90;;;;;;4962741;28;19914;-73
2023/10/16 00:32:36;;;;;;;;;;;6.90;99.90;;;;;;4965893;28;20526;-73
2023/10/16 00:35:03;;;;;;;;;;;6.90;99.90;;;;;;4964746;28;19910;-73
2023/10/16 00:37:31;;;;;;;;;;;6.90;99.90;;;;;;4964222;28;20005;-73
2023/10/16 00:39:57;;;;;;;;;;;6.90;99.90;;;;;;4968251;28;19914;-72
2023/10/16 00:42:23;;;;;;;;;;;6.90;99.90;;;;;;4963332;28;19910;-73
2023/10/16 00:44:55;;;;;;;;;;;6.80;99.90;;;;;;4966162;28;20015;-72
2023/10/16 00:47:21;;;;;;;;;;;6.80;99.90;;;;;;4963171;28;20421;-73
2023/10/16 00:49:49;;;;;;;;;;;6.80;99.90;;;;;;4966479;28;20024;-74
2023/10/16 00:52:15;;;;;;;;;;;6.80;99.90;;;;;;4964834;28;19917;-73
2023/10/16 00:54:41;;;;;;;;;;;6.80;99.90;;;;;;4961452;28;19925;-73
2023/10/16 00:57:08;;;;;;;;;;;6.80;99.90;;;;;;4965828;28;20358;-72
2023/10/16 00:59:35;;;;;;;;;;;6.80;99.90;;;;;;4966070;28;20350;-72
2023/10/16 01:02:07;;;;;;;;;;;6.80;99.90;;;;;;4968419;28;19914;-72
2023/10/16 01:04:33;;;;;;;;;;;6.80;99.90;;;;;;4965172;28;19914;-76
2023/10/16 01:07:00;;;;;;;;;;;6.80;99.90;;;;;;4969480;28;19972;-72
2023/10/16 01:09:26;;;;;;;;;;;6.80;99.90;;;;;;4964366;28;20020;-72
2023/10/16 01:11:52;;;;;;;;;;;6.80;99.90;;;;;;4964600;28;19957;-77
2023/10/16 01:14:19;;;;;;;;;;;6.70;99.90;;;;;;4964578;28;20047;-73
2023/10/16 01:16:46;;;;;;;;;;;6.70;99.90;;;;;;4965267;28;20073;-73
2023/10/16 01:19:14;;;;;;;;;;;6.60;99.90;;;;;;4965758;28;20008;-74
2023/10/16 01:21:39;;;;;;;;;;;6.70;99.90;;;;;;4965006;28;20433;-74
2023/10/16 01:24:12;;;;;;;;;;;6.60;99.90;;;;;;4962644;28;19949;-75
2023/10/16 01:26:38;;;;;;;;;;;6.60;99.90;;;;;;4960486;28;19910;-73
2023/10/16 01:29:07;;;;;;;;;;;6.60;99.90;;;;;;4967098;28;19946;-72
2023/10/16 01:31:36;;;;;;;;;;;6.50;99.90;;;;;;4964625;28;19914;-72
2023/10/16 01:34:10;;;;;;;;;;;6.50;99.90;;;;;;4963935;28;19910;-73
2023/10/16 01:36:36;;;;;;;;;;;6.60;99.90;;;;;;4963935;28;19954;-72
2023/10/16 01:39:07;;;;;;;;;;;6.60;99.90;;;;;;4964123;28;20481;-72
2023/10/16 01:41:34;;;;;;;;;;;6.60;99.90;;;;;;4964200;28;19910;-73
2023/10/16 01:44:09;;;;;;;;;;;6.60;99.90;;;;;;4963382;28;19910;-76
2023/10/16 01:46:35;;;;;;;;;;;6.50;99.90;;;;;;4961009;28;19964;-77
2023/10/16 01:49:02;;;;;;;;;;;6.50;99.90;;;;;;4959066;28;19965;-74
2023/10/16 01:51:30;;;;;;;;;;;6.50;99.90;;;;;;4961054;28;19914;-72
2023/10/16 01:53:55;;;;;;;;;;;6.50;99.90;;;;;;4961462;28;19911;-73
2023/10/16 01:56:22;;;;;;;;;;;6.50;99.90;;;;;;4964939;28;20251;-72
2023/10/16 01:58:49;;;;;;;;;;;6.50;99.90;;;;;;4967977;28;19948;-72
2023/10/16 02:01:16;;;;;;;;;;;6.60;99.90;;;;;;4963000;28;20381;-74
2023/10/16 02:03:46;;;;;;;;;;;6.60;99.90;;;;;;4962382;28;20626;-75
2023/10/16 02:06:11;;;;;;;;;;;6.50;99.90;;;;;;4962808;28;20397;-73
2023/10/16 02:08:38;;;;;;;;;;;6.40;99.90;;;;;;4964129;28;19914;-73
2023/10/16 02:11:04;;;;;;;;;;;6.40;99.90;;;;;;4965603;28;20354;-76
2023/10/16 02:13:32;;;;;;;;;;;6.40;99.90;;;;;;4963568;28;19914;-73
2023/10/16 02:15:58;;;;;;;;;;;6.30;99.90;;;;;;4960682;28;19910;-72
2023/10/16 02:18:23;;;;;;;;;;;6.40;99.90;;;;;;4962495;28;19911;-72
2023/10/16 02:20:49;;;;;;;;;;;6.40;99.90;;;;;;4963971;28;19955;-74
2023/10/16 02:23:15;;;;;;;;;;;6.40;99.90;;;;;;4963913;28;19914;-74
2023/10/16 02:25:41;;;;;;;;;;;6.40;99.90;;;;;;4961126;28;19920;-72
2023/10/16 02:28:08;;;;;;;;;;;6.40;99.90;;;;;;4960108;28;20032;-76
2023/10/16 02:30:38;;;;;;;;;;;6.30;99.90;;;;;;4963784;28;19970;-73
2023/10/16 02:33:26;;;;;;;;;;;6.20;99.90;;;;;;4947704;28;19910;-73
2023/10/16 02:35:57;;;;;;;;;;;6.20;99.90;;;;;;4960183;28;19917;-74
2023/10/16 02:38:27;;;;;;;;;;;6.30;99.90;;;;;;4966722;28;20377;-72
2023/10/16 02:40:53;;;;;;;;;;;6.30;99.90;;;;;;4966407;28;20012;-72
2023/10/16 02:43:20;;;;;;;;;;;6.30;99.90;;;;;;4961413;28;20385;-73
2023/10/16 02:45:52;;;;;;;;;;;6.20;99.90;;;;;;4963729;28;20008;-76
2023/10/16 02:48:19;;;;;;;;;;;6.20;99.90;;;;;;4963684;28;20342;-73
2023/10/16 02:50:49;;;;;;;;;;;6.20;99.90;;;;;;4962999;28;19921;-72
2023/10/16 02:53:27;;;;;;;;;;;6.20;99.90;;;;;;4963258;28;19917;-75
2023/10/16 02:55:57;;;;;;;;;;;6.20;99.90;;;;;;4962227;28;19946;-72
2023/10/16 02:58:26;;;;;;;;;;;6.20;99.90;;;;;;4959829;28;20566;-72
2023/10/16 03:00:55;;;;;;;;;;;6.30;99.90;;;;;;4961934;28;19925;-74
2023/10/16 03:03:24;;;;;;;;;;;6.20;99.90;;;;;;4962897;28;19925;-72
2023/10/16 03:05:55;;;;;;;;;;;6.30;99.90;;;;;;4966245;28;19925;-72
2023/10/16 03:08:22;;;;;;;;;;;6.30;99.90;;;;;;4961490;28;19918;-72
2023/10/16 03:10:48;;;;;;;;;;;6.20;99.90;;;;;;4950615;28;19914;-73
2023/10/16 03:13:15;;;;;;;;;;;6.20;99.90;;;;;;4961479;28;19965;-72
2023/10/16 03:15:45;;;;;;;;;;;6.10;99.90;;;;;;4967503;28;20436;-73
2023/10/16 03:18:20;;;;;;;;;;;6.20;99.90;;;;;;4963022;28;19914;-73
2023/10/16 03:20:46;;;;;;;;;;;6.30;99.90;;;;;;4968598;28;19976;-72
2023/10/16 03:23:13;;;;;;;;;;;6.30;99.90;;;;;;4964637;28;19918;-72
2023/10/16 03:28:08;;;;;;;;;;;6.20;99.90;;;;;;4966661;28;19910;-74
2023/10/16 03:30:34;;;;;;;;;;;6.10;99.90;;;;;;4963666;28;19997;-72
2023/10/16 03:33:00;;;;;;;;;;;6.20;99.90;;;;;;4968704;28;19997;-72
2023/10/16 03:35:26;;;;;;;;;;;6.20;99.90;;;;;;4960754;28;19914;-72
2023/10/16 03:37:55;;;;;;;;;;;6.20;99.90;;;;;;4953357;28;19929;-73
2023/10/16 03:40:24;;;;;;;;;;;6.20;99.90;;;;;;4965936;28;19992;-72
2023/10/16 03:42:49;;;;;;;;;;;6.20;99.90;;;;;;4962825;28;20434;-73
2023/10/16 03:45:16;;;;;;;;;;;6.10;99.90;;;;;;4964736;28;20008;-72
2023/10/16 03:47:42;;;;;;;;;;;6.10;99.90;;;;;;4970173;28;19969;-72
2023/10/16 03:50:08;;;;;;;;;;;6.10;99.90;;;;;;4963451;28;19918;-72
2023/10/16 03:52:35;;;;;;;;;;;6.10;99.90;;;;;;4966281;28;19914;-72
2023/10/16 03:55:22;;;;;;;;;;;6.10;99.90;;;;;;4967375;28;20440;-73
2023/10/16 03:57:48;;;;;;;;;;;6.10;99.90;;;;;;4968045;28;20428;-72
2023/10/16 04:00:18;;;;;;;;;;;6.10;99.90;;;;;;4967008;28;19926;-71
2023/10/16 04:02:44;;;;;;;;;;;6.10;99.90;;;;;;4967256;28;20635;-72
2023/10/16 04:07:54;;;;;;;;;;;6.00;99.90;;;;;;4966868;28;19921;-72
2023/10/16 04:10:28;;;;;;;;;;;6.00;99.90;;;;;;4966788;28;19914;-72
2023/10/16 04:12:54;;;;;;;;;;;6.00;99.90;;;;;;4964734;28;19914;-72
2023/10/16 04:18:18;;;;;;;;;;;6.00;99.90;;;;;;4966279;28;19942;-73
2023/10/16 04:20:44;;;;;;;;;;;6.20;99.90;;;;;;4963955;28;19925;-72
2023/10/16 04:50:15;;;;;;;;;;;6.00;99.90;;;;;;4968852;28;20610;-74
2023/10/16 06:14:14;;;;;;;;;;;16.40;95.20;;;;;;4961700;28;19969;-70
2023/10/16 06:16:41;;;;;;;;;;;17.00;93.90;;;;;;4960796;28;19957;-70
2023/10/16 06:19:17;;;;;;;;;;;17.50;92.10;;;;;;4967135;28;20625;-70
2023/10/16 06:21:49;;;;;;;;;;;17.80;91.30;;;;;;4968369;28;20037;-69
2023/10/16 06:24:25;;;;;;;;;;;18.40;91.00;;;;;;4963276;28;20369;-70
2023/10/16 06:26:59;;;;;;;;;;;19.10;88.00;;;;;;4962444;28;19965;-70
2023/10/16 06:29:28;;;;;;;;;;;19.50;85.60;;;;;;4963148;28;19914;-70
2023/10/16 06:31:53;;;;;;;;;;;20.00;83.10;;;;;;4960858;28;19917;-69
2023/10/16 06:34:20;;;;;;;;;;;20.30;82.00;;;;;;4960056;28;19914;-72
2023/10/16 06:36:45;;;;;;;;;;;20.20;80.00;;;;;;4965036;28;20515;-72
2023/10/16 06:39:22;;;;;;;;;;;20.60;78.40;;;;;;4969430;28;19914;-73
2023/10/16 06:41:54;;;;;;;;;;;20.90;77.20;;;;;;4962181;28;19937;-73
2023/10/16 06:44:21;;;;;;;;;;;21.10;75.60;;;;;;4961830;28;19929;-73
2023/10/16 06:46:49;;;;;;;;;;;20.60;76.30;;;;;;4964551;28;20388;-73
2023/10/16 06:49:15;;;;;;;;;;;21.20;75.30;;;;;;4963152;28;20003;-73
2023/10/16 06:51:44;;;;;;;;;;;21.50;75.20;;;;;;4960769;28;19961;-73
2023/10/16 06:54:10;;;;;;;;;;;22.10;72.70;;;;;;4962233;28;20009;-73
2023/10/16 06:56:38;;;;;;;;;;;22.90;70.80;;;;;;4942793;28;19923;-73
2023/10/16 06:59:04;;;;;;;;;;;23.40;68.50;;;;;;4961992;28;19917;-73
2023/10/16 07:01:29;;;;;;;;;;;23.50;67.40;;;;;;4961845;28;19914;-73
2023/10/16 07:03:55;;;;;;;;;;;23.80;66.40;;;;;;4961736;28;19918;-73
2023/10/16 07:06:24;;;;;;;;;;;24.30;66.10;;;;;;4961434;28;19918;-73
2023/10/16 07:08:51;;;;;;;;;;;24.80;64.60;;;;;;4965124;28;19968;-73
2023/10/16 07:11:19;;;;;;;;;;;25.20;63.10;;;;;;4963894;28;20284;-73
2023/10/16 07:13:44;;;;;;;;;;;25.80;62.20;;;;;;4963071;28;19917;-73
2023/10/16 07:16:10;;;;;;;;;;;26.00;61.10;;;;;;4963803;28;20005;-74
2023/10/16 07:18:42;;;;;;;;;;;26.60;60.00;;;;;;4961247;28;19914;-74
2023/10/16 07:21:08;;;;;;;;;;;26.70;59.70;;;;;;4963610;28;19996;-74
2023/10/16 07:23:34;;;;;;;;;;;27.00;59.80;;;;;;4961332;28;20311;-74
2023/10/16 07:26:00;;;;;;;;;;;27.20;58.70;;;;;;4964139;28;19917;-73
2023/10/16 07:28:27;;;;;;;;;;;27.30;58.00;;;;;;4960756;28;19915;-74
2023/10/16 07:30:56;;;;;;;;;;;26.70;57.70;;;;;;4956407;28;19949;-73
2023/10/16 07:33:22;;;;;;;;;;;26.50;57.60;;;;;;4962500;28;20020;-73
2023/10/16 07:35:48;;;;;;;;;;;27.00;56.80;;;;;;4966322;28;19921;-73
2023/10/16 07:38:21;;;;;;;;;;;26.30;57.50;;;;;;4962751;28;19918;-73
2023/10/16 07:41:04;;;;;;;;;;;25.50;58.70;;;;;;4964053;28;19964;-73
2023/10/16 07:43:34;;;;;;;;;;;25.90;57.70;;;;;;4962772;28;19996;-73
2023/10/16 07:48:40;;;;;;;;;;;25.10;57.90;;;;;;4963183;28;19911;-74
2023/10/16 07:51:07;;;;;;;;;;;23.70;59.30;;;;;;4966038;28;19914;-74
2023/10/16 07:53:34;;;;;;;;;;;24.20;60.40;;;;;;4942618;28;19950;-74
2023/10/16 07:56:02;;;;;;;;;;;25.10;58.40;;;;;;4958831;28;19922;-73
2023/10/16 07:58:33;;;;;;;;;;;26.20;56.30;;;;;;4962175;28;20422;-73
2023/10/16 08:03:36;;;;;;;;;;;26.90;55.20;;;;;;4960719;28;19918;-73
2023/10/16 08:06:05;;;;;;;;;;;26.80;54.60;;;;;;4960655;28;19914;-74
2023/10/16 08:08:36;;;;;;;;;;;26.60;54.50;;;;;;4965412;28;20267;-73
2023/10/16 08:11:12;;;;;;;;;;;26.20;54.20;;;;;;4966483;28;19918;-74
2023/10/16 08:13:46;;;;;;;;;;;26.40;56.40;;;;;;4960773;28;19914;-73
2023/10/16 08:16:19;;;;;;;;;;;27.50;53.70;;;;;;4949889;28;19956;-73
2023/10/16 08:18:47;;;;;;;;;;;25.20;54.30;;;;;;4963242;28;19976;-73
2023/10/16 08:21:21;;;;;;;;;;;25.70;55.30;;;;;;4964753;28;20257;-74
2023/10/16 08:23:47;;;;;;;;;;;26.30;53.90;;;;;;4961474;28;19909;-73
2023/10/16 08:26:19;;;;;;;;;;;26.70;53.50;;;;;;4962358;28;19928;-74
2023/10/16 08:28:45;;;;;;;;;;;27.00;52.70;;;;;;4960930;28;19973;-73
2023/10/16 08:31:23;;;;;;;;;;;26.50;53.80;;;;;;4969402;28;20222;-73
2023/10/16 08:33:49;;;;;;;;;;;27.50;52.30;;;;;;4969919;28;19910;-73
2023/10/16 08:36:18;;;;;;;;;;;28.40;52.40;;;;;;4965580;28;20404;-73
2023/10/16 08:38:52;;;;;;;;;;;28.70;51.40;;;;;;4960246;28;19918;-73
2023/10/16 08:41:22;;;;;;;;;;;30.00;50.40;;;;;;4965378;28;19910;-73
2023/10/16 08:43:53;;;;;;;;;;;30.60;50.10;;;;;;4969661;28;19936;-73
2023/10/16 08:46:24;;;;;;;;;;;31.20;48.50;;;;;;4963558;28;19921;-73
2023/10/16 08:48:52;;;;;;;;;;;31.50;48.50;;;;;;4964018;28;19917;-73
2023/10/16 08:51:19;;;;;;;;;;;31.70;48.10;;;;;;4969005;28;19913;-73
2023/10/16 08:53:45;;;;;;;;;;;31.60;48.00;;;;;;4961056;28;19920;-73
2023/10/16 08:56:12;;;;;;;;;;;31.50;47.70;;;;;;4965385;28;20436;-73
2023/10/16 08:58:43;;;;;;;;;;;31.40;47.40;;;;;;4961048;28;20234;-73
2023/10/16 09:01:09;;;;;;;;;;;32.50;47.10;;;;;;4967142;28;19924;-73
2023/10/16 09:03:36;;;;;;;;;;;33.10;47.20;;;;;;4965349;28;19914;-73
2023/10/16 09:06:04;;;;;;;;;;;32.60;46.90;;;;;;4964914;28;19914;-73
2023/10/16 09:08:33;;;;;;;;;;;32.50;46.30;;;;;;4970928;28;19910;-73
2023/10/16 09:11:08;;;;;;;;;;;31.80;46.40;;;;;;4964023;28;20643;-73
2023/10/16 09:13:35;;;;;;;;;;;30.60;47.50;;;;;;4963191;28;19914;-73
2023/10/16 09:16:02;;;;;;;;;;;30.10;48.20;;;;;;4965150;28;19910;-73
2023/10/16 09:18:27;;;;;;;;;;;31.20;48.30;;;;;;4961580;28;20123;-73
2023/10/16 09:21:00;;;;;;;;;;;31.10;47.40;;;;;;4966640;28;20299;-73
2023/10/16 09:23:36;;;;;;;;;;;31.00;46.80;;;;;;4965058;28;20000;-73
2023/10/16 09:26:02;;;;;;;;;;;31.50;46.80;;;;;;4962814;28;20445;-73
2023/10/16 09:28:32;;;;;;;;;;;32.50;46.50;;;;;;4963140;28;20004;-73
2023/10/16 09:31:01;;;;;;;;;;;33.10;46.40;;;;;;4958072;28;19971;-74
2023/10/16 09:33:27;;;;;;;;;;;32.90;45.80;;;;;;4967060;28;20350;-73
2023/10/16 09:36:00;;;;;;;;;;;33.80;46.10;;;;;;4964738;28;19914;-73
2023/10/16 09:38:32;;;;;;;;;;;34.10;46.30;;;;;;4967305;28;19944;-73
2023/10/16 09:49:10;;;;;;;;;;;32.10;46.40;;;;;;4963713;28;19910;-73
2023/10/16 09:51:35;;;;;;;;;;;33.30;45.90;;;;;;4966739;28;19918;-73
2023/10/16 09:54:02;;;;;;;;;;;33.90;45.00;;;;;;4965336;28;20900;-73
2023/10/16 09:56:35;;;;;;;;;;;34.40;44.50;;;;;;4960956;28;20017;-73
2023/10/16 09:59:04;;;;;;;;;;;34.00;43.60;;;;;;4964043;28;19914;-73
2023/10/16 10:01:31;;;;;;;;;;;34.10;43.70;;;;;;4961503;28;20005;-73
2023/10/16 10:03:58;;;;;;;;;;;33.50;43.70;;;;;;4961622;28;19965;-73
2023/10/16 10:06:32;;;;;;;;;;;33.50;44.20;;;;;;4962697;28;19945;-73
2023/10/16 10:11:45;;;;;;;;;;;33.70;43.60;;;;;;4967910;28;19929;-74
2023/10/16 10:16:57;;;;;;;;;;;34.30;43.30;;;;;;4967769;28;20593;-74
2023/10/16 10:19:32;;;;;;;;;;;33.90;42.80;;;;;;4965107;28;19910;-73
2023/10/16 10:22:11;;;;;;;;;;;34.20;42.50;;;;;;4960135;28;19910;-74
2023/10/16 10:24:38;;;;;;;;;;;33.70;42.00;;;;;;4962431;28;20437;-74
2023/10/16 10:27:05;;;;;;;;;;;33.60;42.90;;;;;;4964082;28;19961;-74
2023/10/16 10:29:31;;;;;;;;;;;33.70;42.50;;;;;;4943340;28;19919;-73
2023/10/16 10:32:09;;;;;;;;;;;33.70;43.10;;;;;;4966242;28;20413;-73
2023/10/16 10:34:34;;;;;;;;;;;33.70;43.50;;;;;;4958567;28;19914;-73
2023/10/16 10:37:00;;;;;;;;;;;33.80;43.00;;;;;;4964269;28;19917;-73
2023/10/16 10:41:55;;;;;;;;;;;32.90;42.30;;;;;;4966138;28;19910;-74
2023/10/16 10:44:30;;;;;;;;;;;32.90;40.80;;;;;;4963952;28;20019;-74
2023/10/16 10:46:57;;;;;;;;;;;32.20;41.20;;;;;;4941744;28;19914;-74
2023/10/16 10:49:33;;;;;;;;;;;29.20;42.50;;;;;;4964381;28;20009;-74
2023/10/16 10:52:06;;;;;;;;;;;25.70;44.30;;;;;;4964826;28;20042;-73
2023/10/16 10:54:33;;;;;;;;;;;23.30;47.60;;;;;;4959213;28;20573;-73
2023/10/16 10:56:59;;;;;;;;;;;21.80;49.80;;;;;;4963431;28;19918;-73
2023/10/16 10:59:40;;;;;;;;;;;20.80;51.60;;;;;;4962329;28;19910;-74
2023/10/16 11:04:45;;;;;;;;;;;19.30;53.80;;;;;;4963261;28;20373;-73
2023/10/16 11:07:26;;;;;;;;;;;18.90;54.70;;;;;;4960115;28;20385;-73
2023/10/16 11:09:52;;;;;;;;;;;18.90;55.30;;;;;;4965775;28;20019;-73
2023/10/16 11:12:24;;;;;;;;;;;18.80;56.20;;;;;;4964253;28;20386;-73
2023/10/16 11:14:50;;;;;;;;;;;18.20;55.80;;;;;;4949488;28;19914;-73
2023/10/16 11:17:34;;;;;;;;;;;17.90;57.80;;;;;;4963876;28;20337;-73
2023/10/16 11:22:45;;;;;;;;;;;17.10;58.90;;;;;;4959280;28;19949;-72
2023/10/16 11:25:15;;;;;;;;;;;17.20;59.20;;;;;;4962615;28;19936;-73
2023/10/16 11:27:43;;;;;;;;;;;17.50;59.10;;;;;;4960019;28;19921;-73
2023/10/16 11:30:11;;;;;;;;;;;17.00;58.80;;;;;;4965999;28;19914;-72
2023/10/16 11:32:41;;;;;;;;;;;16.80;59.70;;;;;;4961956;28;19918;-72
2023/10/16 11:35:15;;;;;;;;;;;16.90;60.30;;;;;;4967476;28;19998;-74
2023/10/16 11:37:52;;;;;;;;;;;17.30;60.90;;;;;;4963550;28;19914;-73
2023/10/16 11:43:14;;;;;;;;;;;17.30;58.70;;;;;;4960202;28;19918;-72
2023/10/16 11:45:42;;;;;;;;;;;17.30;57.90;;;;;;4963507;28;19926;-73
2023/10/16 11:50:54;;;;;;;;;;;17.30;57.20;;;;;;4970687;28;19993;-73
2023/10/16 11:53:28;;;;;;;;;;;17.30;56.30;;;;;;4964824;28;19914;-73
2023/10/16 11:55:54;;;;;;;;;;;17.20;57.00;;;;;;4966808;28;19917;-72
2023/10/16 11:58:19;;;;;;;;;;;17.20;57.20;;;;;;4966149;28;19912;-72
2023/10/16 12:01:09;;;;;;;;;;;17.30;58.00;;;;;;4967166;28;19984;-73
2023/10/16 12:03:38;;;;;;;;;;;17.30;57.50;;;;;;4965606;28;19946;-72
2023/10/16 12:06:13;;;;;;;;;;;17.50;57.80;;;;;;4966276;28;19921;-74
2023/10/16 12:08:41;;;;;;;;;;;17.40;55.40;;;;;;4962424;28;19914;-72
2023/10/16 12:11:07;;;;;;;;;;;17.00;56.90;;;;;;4968143;28;20465;-72
2023/10/16 12:13:33;;;;;;;;;;;17.00;56.40;;;;;;4964164;28;19914;-72
2023/10/16 12:15:59;;;;;;;;;;;17.00;56.60;;;;;;4966149;28;19960;-72
2023/10/16 12:18:28;;;;;;;;;;;16.90;57.90;;;;;;4963278;28;19918;-72
2023/10/16 12:20:59;;;;;;;;;;;16.90;57.40;;;;;;4962239;28;19917;-72
2023/10/16 12:23:24;;;;;;;;;;;16.80;55.50;;;;;;4964725;28;19918;-72
2023/10/16 12:25:50;;;;;;;;;;;16.90;55.50;;;;;;4964556;28;20480;-72
2023/10/16 12:28:16;;;;;;;;;;;16.80;56.80;;;;;;4966414;28;20376;-72
2023/10/16 12:30:42;;;;;;;;;;;16.50;57.50;;;;;;4964659;28;20013;-72
2023/10/16 12:33:08;;;;;;;;;;;16.20;59.10;;;;;;4966078;28;20373;-72
2023/10/16 12:35:38;;;;;;;;;;;16.30;58.90;;;;;;4962108;28;19919;-72
2023/10/16 12:38:07;;;;;;;;;;;16.40;58.00;;;;;;4965553;28;19914;-72
2023/10/16 12:40:37;;;;;;;;;;;16.40;57.10;;;;;;4967304;28;19922;-73
2023/10/16 12:43:05;;;;;;;;;;;16.60;56.10;;;;;;4966484;28;20473;-72
2023/10/16 12:45:32;;;;;;;;;;;16.60;56.50;;;;;;4958743;28;19996;-72
2023/10/16 12:47:58;;;;;;;;;;;16.40;57.60;;;;;;4959704;28;19911;-72
2023/10/16 12:50:25;;;;;;;;;;;16.60;56.30;;;;;;4959655;28;19914;-71
2023/10/16 12:52:51;;;;;;;;;;;16.00;57.50;;;;;;4966487;28;19926;-72
2023/10/16 12:55:18;;;;;;;;;;;15.20;60.30;;;;;;4959210;28;19964;-70
2023/10/16 12:57:44;;;;;;;;;;;15.00;61.80;;;;;;4961637;28;19918;-69
2023/10/16 13:00:17;;;;;;;;;;;15.20;61.80;;;;;;4966030;28;20405;-70
2023/10/16 13:02:47;;;;;;;;;;;15.20;61.30;;;;;;4966136;28;19914;-70
2023/10/16 13:05:13;;;;;;;;;;;15.10;61.20;;;;;;4965872;28;19910;-69
2023/10/16 13:07:41;;;;;;;;;;;15.20;62.40;;;;;;4960989;28;19985;-69
2023/10/16 13:10:08;;;;;;;;;;;15.40;61.10;;;;;;4962877;28;19925;-69
2023/10/16 13:12:36;;;;;;;;;;;15.70;60.10;;;;;;4964314;28;19969;-69
2023/10/16 13:15:03;;;;;;;;;;;15.70;58.60;;;;;;4948102;28;19918;-69
2023/10/16 13:17:29;;;;;;;;;;;15.90;57.30;;;;;;4963958;28;20798;-71
2023/10/16 13:19:55;;;;;;;;;;;15.90;57.30;;;;;;4965536;28;19914;-70
2023/10/16 13:22:20;;;;;;;;;;;16.00;57.00;;;;;;4964609;28;19918;-69
2023/10/16 13:24:46;;;;;;;;;;;15.90;57.50;;;;;;4961870;28;19935;-69
2023/10/16 13:27:11;;;;;;;;;;;15.70;58.30;;;;;;4964035;28;19914;-70
2023/10/16 13:29:40;;;;;;;;;;;15.40;59.20;;;;;;4965528;28;19921;-70
2023/10/16 13:32:09;;;;;;;;;;;14.90;60.10;;;;;;4962567;28;19965;-70
2023/10/16 13:34:36;;;;;;;;;;;14.50;61.70;;;;;;4962582;28;20025;-71
2023/10/16 13:37:08;;;;;;;;;;;14.30;62.50;;;;;;4964469;28;19914;-71
2023/10/16 13:39:38;;;;;;;;;;;14.60;59.20;;;;;;4962298;28;19922;-71
2023/10/16 13:42:14;;;;;;;;;;;14.80;57.40;;;;;;4961832;28;20370;-72
2023/10/16 13:44:40;;;;;;;;;;;15.10;56.70;;;;;;4964351;28;19929;-71
2023/10/16 13:47:06;;;;;;;;;;;15.30;56.80;;;;;;4964443;28;20001;-71
2023/10/16 13:49:36;;;;;;;;;;;15.40;55.70;;;;;;4960487;28;19996;-71
2023/10/16 13:52:03;;;;;;;;;;;15.40;57.10;;;;;;4964875;28;19981;-71
2023/10/16 13:54:31;;;;;;;;;;;15.30;57.80;;;;;;4958097;28;19914;-71
2023/10/16 13:56:56;;;;;;;;;;;15.10;59.80;;;;;;4962181;28;19921;-71
2023/10/16 13:59:22;;;;;;;;;;;15.00;60.40;;;;;;4963562;28;19914;-71
2023/10/16 14:01:48;;;;;;;;;;;14.90;60.90;;;;;;4962942;28;20365;-72
2023/10/16 14:04:15;;;;;;;;;;;15.00;61.50;;;;;;4962261;28;19918;-71
2023/10/16 14:06:41;;;;;;;;;;;15.10;60.90;;;;;;4964642;28;19914;-71
2023/10/16 14:09:11;;;;;;;;;;;15.20;60.60;;;;;;4965651;28;19913;-71
2023/10/16 14:11:47;;;;;;;;;;;15.20;60.10;;;;;;4963381;28;20172;-71
2023/10/16 14:14:18;;;;;;;;;;;15.00;60.10;;;;;;4965008;28;19924;-71
2023/10/16 14:16:53;;;;;;;;;;;15.00;60.70;;;;;;4960954;28;19924;-72
2023/10/16 14:19:22;;;;;;;;;;;15.00;60.60;;;;;;4962381;28;19914;-72
2023/10/16 14:21:51;;;;;;;;;;;15.10;59.80;;;;;;4961959;28;19933;-72
2023/10/16 14:24:18;;;;;;;;;;;14.80;59.60;;;;;;4947182;28;19914;-71
2023/10/16 14:26:47;;;;;;;;;;;14.70;59.60;;;;;;4947969;28;20465;-72
2023/10/16 14:29:12;;;;;;;;;;;14.50;59.60;;;;;;4962855;28;20456;-72
2023/10/16 14:31:39;;;;;;;;;;;14.60;60.00;;;;;;4961753;28;19918;-72
2023/10/16 14:34:05;;;;;;;;;;;14.50;60.00;;;;;;4963530;28;19911;-72
2023/10/16 14:36:31;;;;;;;;;;;14.50;61.20;;;;;;4964983;28;19922;-72
2023/10/16 14:38:59;;;;;;;;;;;14.40;61.00;;;;;;4962225;28;19914;-71
2023/10/16 14:41:25;;;;;;;;;;;14.30;61.00;;;;;;4962442;28;20400;-72
2023/10/16 14:43:51;;;;;;;;;;;14.20;61.30;;;;;;4963637;28;19918;-72
2023/10/16 14:46:17;;;;;;;;;;;14.10;62.00;;;;;;4956561;28;19953;-72
2023/10/16 14:48:43;;;;;;;;;;;14.00;61.80;;;;;;4946572;28;20354;-72
2023/10/16 14:51:12;;;;;;;;;;;13.90;62.50;;;;;;4960825;28;19915;-71
2023/10/16 14:53:39;;;;;;;;;;;13.80;62.90;;;;;;4960443;28;20000;-71
2023/10/16 14:56:08;;;;;;;;;;;13.80;63.60;;;;;;4958848;28;19914;-72
2023/10/16 14:58:34;;;;;;;;;;;13.80;63.50;;;;;;4963416;28;20353;-72
2023/10/16 15:01:09;;;;;;;;;;;13.70;63.10;;;;;;4959316;28;19925;-71
2023/10/16 15:03:38;;;;;;;;;;;13.70;63.90;;;;;;4960883;28;19914;-71
2023/10/16 15:06:04;;;;;;;;;;;13.70;65.20;;;;;;4964606;28;19910;-71
2023/10/16 15:08:30;;;;;;;;;;;13.60;66.10;;;;;;4960782;28;19910;-71
2023/10/16 15:10:58;;;;;;;;;;;13.50;65.60;;;;;;4964221;28;19985;-70
2023/10/16 15:13:27;;;;;;;;;;;13.30;68.20;;;;;;4967626;28;19914;-71
2023/10/16 15:15:53;;;;;;;;;;;13.20;68.00;;;;;;4965795;28;19920;-71
2023/10/16 15:18:19;;;;;;;;;;;13.10;65.90;;;;;;4965644;28;19914;-71
2023/10/16 15:20:45;;;;;;;;;;;13.00;71.00;;;;;;4969335;28;20507;-72
2023/10/16 15:23:12;;;;;;;;;;;13.00;70.00;;;;;;4969514;28;19994;-71
2023/10/16 15:25:38;;;;;;;;;;;12.90;70.90;;;;;;4963185;28;20315;-71
2023/10/16 15:28:04;;;;;;;;;;;12.90;71.90;;;;;;4968244;28;20097;-71
2023/10/16 15:30:33;;;;;;;;;;;12.90;73.50;;;;;;4964063;28;20464;-71
2023/10/16 15:33:00;;;;;;;;;;;12.80;74.80;;;;;;4965216;28;19914;-71
2023/10/16 15:35:26;;;;;;;;;;;12.80;75.90;;;;;;4961356;28;20621;-71
2023/10/16 15:37:52;;;;;;;;;;;12.70;77.00;;;;;;4967787;28;19918;-71
2023/10/16 15:40:18;;;;;;;;;;;12.60;77.80;;;;;;4970142;28;19920;-71
2023/10/16 15:42:56;;;;;;;;;;;12.50;78.10;;;;;;4967197;28;19918;-71
2023/10/16 15:45:32;;;;;;;;;;;12.40;79.00;;;;;;4970044;28;19921;-71
2023/10/16 15:47:58;;;;;;;;;;;12.30;78.70;;;;;;4961870;28;19914;-71
2023/10/16 15:50:27;;;;;;;;;;;12.20;79.80;;;;;;4965320;28;20013;-70
2023/10/16 15:52:54;;;;;;;;;;;12.10;82.90;;;;;;4965081;28;19938;-71
2023/10/16 15:55:20;;;;;;;;;;;12.10;80.80;;;;;;4967466;28;20377;-69
2023/10/16 15:57:49;;;;;;;;;;;12.00;79.70;;;;;;4962128;28;19925;-70
2023/10/16 16:00:17;;;;;;;;;;;11.90;80.10;;;;;;4968180;28;19924;-70
2023/10/16 16:02:43;;;;;;;;;;;11.90;80.20;;;;;;4962355;28;19980;-70
2023/10/16 16:05:12;;;;;;;;;;;11.70;80.70;;;;;;4963871;28;20350;-70
2023/10/16 16:07:38;;;;;;;;;;;11.60;81.70;;;;;;4961546;28;19956;-70
2023/10/16 16:10:06;;;;;;;;;;;11.50;83.10;;;;;;4969645;28;20216;-70
2023/10/16 16:12:32;;;;;;;;;;;11.40;84.40;;;;;;4965006;28;19914;-70
2023/10/16 16:14:59;;;;;;;;;;;11.20;86.50;;;;;;4964563;28;19910;-71
2023/10/16 16:17:26;;;;;;;;;;;11.10;87.20;;;;;;4964030;28;20384;-70
2023/10/16 16:19:54;;;;;;;;;;;11.00;88.60;;;;;;4964191;28;19918;-70
2023/10/16 16:22:20;;;;;;;;;;;10.90;88.90;;;;;;4966202;28;19921;-70
2023/10/16 16:24:46;;;;;;;;;;;10.80;88.40;;;;;;4967354;28;20285;-72
2023/10/16 16:27:13;;;;;;;;;;;10.80;89.00;;;;;;4966631;28;20099;-72
2023/10/16 16:29:40;;;;;;;;;;;10.70;89.10;;;;;;4961827;28;20357;-71
2023/10/16 16:32:06;;;;;;;;;;;10.70;89.10;;;;;;4966695;28;19910;-72
2023/10/16 16:34:33;;;;;;;;;;;10.60;90.10;;;;;;4965951;28;20050;-72
2023/10/16 16:36:59;;;;;;;;;;;10.60;90.60;;;;;;4966235;28;20025;-72
2023/10/16 16:39:32;;;;;;;;;;;10.50;90.60;;;;;;4966196;28;19918;-73
2023/10/16 16:42:01;;;;;;;;;;;10.40;90.90;;;;;;4962812;28;19911;-72
2023/10/16 16:44:37;;;;;;;;;;;10.40;91.40;;;;;;4963167;28;19917;-72
2023/10/16 16:47:03;;;;;;;;;;;10.30;91.60;;;;;;4967590;28;19918;-73
2023/10/16 16:49:29;;;;;;;;;;;10.20;92.20;;;;;;4963781;28;19914;-73
2023/10/16 16:51:56;;;;;;;;;;;10.10;92.80;;;;;;4965882;28;19921;-72
2023/10/16 16:54:22;;;;;;;;;;;10.00;93.00;;;;;;4962239;28;19925;-73
2023/10/16 16:56:50;;;;;;;;;;;9.90;93.10;;;;;;4965820;28;20317;-74